createdAt,value
2023-01-08T00:01:20.522Z,45.77
2023-01-08T00:03:48.577Z,42.03
2023-01-08T00:06:21.355Z,43.27
2023-01-08T00:08:49.629Z,41.57
2023-01-08T00:11:17.807Z,38.20
2023-01-08T00:13:46.736Z,38.27
2023-01-08T00:16:20.250Z,35.10
2023-01-08T00:18:49.131Z,36.67
2023-01-08T00:21:18.336Z,37.53
2023-01-08T00:23:46.134Z,37.30
2023-01-08T00:26:15.146Z,37.27
2023-01-08T00:28:43.551Z,37.33
2023-01-08T00:31:13.993Z,36.30
2023-01-08T00:33:42.686Z,36.23
2023-01-08T00:36:12.294Z,35.37
2023-01-08T00:38:42.042Z,34.40
2023-01-08T00:41:10.554Z,38.00
2023-01-08T00:43:39.485Z,35.53
2023-01-08T00:46:07.889Z,39.07
2023-01-08T00:48:38.665Z,38.43
2023-01-08T00:51:07.881Z,39.90
2023-01-08T00:53:36.351Z,35.60
2023-01-08T00:56:08.044Z,37.73
2023-01-08T00:58:36.279Z,39.70
2023-01-08T01:01:10.129Z,38.27
2023-01-08T01:03:43.116Z,37.00
2023-01-08T01:06:13.982Z,36.37
2023-01-08T01:08:44.561Z,37.60
2023-01-08T01:11:19.833Z,34.87
2023-01-08T01:13:48.219Z,32.17
2023-01-08T01:16:16.160Z,34.00
2023-01-08T01:18:44.330Z,36.40
2023-01-08T01:21:13.766Z,35.90
2023-01-08T01:23:41.852Z,36.80
2023-01-08T01:26:18.186Z,35.53
2023-01-08T01:28:49.037Z,34.93
2023-01-08T01:31:17.195Z,37.17
2023-01-08T01:33:45.680Z,37.27
2023-01-08T01:36:15.179Z,36.80
2023-01-08T01:38:45.264Z,38.17
2023-01-08T01:41:23.382Z,38.90
2023-01-08T01:43:53.953Z,36.77
2023-01-08T01:46:28.037Z,37.43
2023-01-08T01:49:01.239Z,36.57
2023-01-08T01:51:33.784Z,36.70
2023-01-08T01:54:04.609Z,36.03
2023-01-08T01:56:35.363Z,37.77
2023-01-08T01:59:03.976Z,36.33
2023-01-08T02:01:33.296Z,37.40
2023-01-08T02:04:01.343Z,38.83
2023-01-08T02:06:40.645Z,39.33
2023-01-08T02:09:16.224Z,39.93
2023-01-08T02:12:13.741Z,42.27
2023-01-08T02:14:50.033Z,39.50
2023-01-08T02:17:27.618Z,39.47
2023-01-08T02:20:02.253Z,42.87
2023-01-08T02:22:43.168Z,39.50
2023-01-08T02:25:17.402Z,36.70
2023-01-08T02:27:52.299Z,36.07
2023-01-08T02:30:20.730Z,31.73
2023-01-08T02:32:53.195Z,34.67
2023-01-08T02:35:21.801Z,31.63
2023-01-08T02:37:50.283Z,36.87
2023-01-08T02:40:28.707Z,34.43
2023-01-08T02:43:02.971Z,33.97
2023-01-08T02:45:42.266Z,33.93
2023-01-08T02:48:13.591Z,34.30
2023-01-08T02:50:46.054Z,33.23
2023-01-08T02:53:20.023Z,34.37
2023-01-08T02:55:52.705Z,34.53
2023-01-08T02:58:24.511Z,33.90
2023-01-08T03:00:54.548Z,36.93
2023-01-08T03:03:26.097Z,35.57
2023-01-08T03:05:57.886Z,36.30
2023-01-08T03:08:27.111Z,34.50
2023-01-08T03:10:59.229Z,39.47
2023-01-08T03:13:37.494Z,39.20
2023-01-08T03:16:09.401Z,47.77
2023-01-08T03:18:42.822Z,51.60
2023-01-08T03:21:11.641Z,54.60
2023-01-08T03:23:42.079Z,52.90
2023-01-08T03:26:11.321Z,48.77
2023-01-08T03:28:50.035Z,47.90
2023-01-08T03:31:20.416Z,51.50
2023-01-08T03:33:49.340Z,68.53
2023-01-08T03:36:22.395Z,92.67
2023-01-08T03:38:55.372Z,84.37
2023-01-08T03:41:27.073Z,70.43
2023-01-08T03:43:59.530Z,66.27
2023-01-08T03:46:35.399Z,62.40
2023-01-08T03:49:06.336Z,67.53
2023-01-08T03:51:41.128Z,74.23
2023-01-08T03:54:12.998Z,67.03
2023-01-08T03:56:41.169Z,74.20
2023-01-08T03:59:11.567Z,74.63
2023-01-08T04:01:39.600Z,74.90
2023-01-08T04:04:08.049Z,71.93
2023-01-08T04:06:35.961Z,70.00
2023-01-08T04:09:03.925Z,66.03
2023-01-08T04:11:32.228Z,70.40
2023-01-08T04:14:00.490Z,54.57
2023-01-08T04:16:29.778Z,59.60
2023-01-08T04:18:57.675Z,68.03
2023-01-08T04:21:25.805Z,62.00
2023-01-08T04:23:53.665Z,64.00
2023-01-08T04:26:21.644Z,67.50
2023-01-08T04:28:49.581Z,65.70
2023-01-08T04:31:17.555Z,66.67
2023-01-08T04:33:46.846Z,63.93
2023-01-08T04:36:14.905Z,58.80
2023-01-08T04:38:43.121Z,59.07
2023-01-08T04:41:13.253Z,60.03
2023-01-08T04:43:41.155Z,55.07
2023-01-08T04:46:09.107Z,57.57
2023-01-08T04:48:38.343Z,52.33
2023-01-08T04:51:08.337Z,54.50
2023-01-08T04:53:38.116Z,58.20
2023-01-08T04:56:08.250Z,56.27
2023-01-08T04:58:37.836Z,49.83
2023-01-08T05:01:11.669Z,49.17
2023-01-08T05:03:39.954Z,49.20
2023-01-08T05:06:09.692Z,45.77
2023-01-08T05:08:38.996Z,53.40
2023-01-08T05:11:06.891Z,55.87
2023-01-08T05:13:35.565Z,54.03
2023-01-08T05:16:03.964Z,55.03
2023-01-08T05:18:32.109Z,52.67
2023-01-08T05:21:03.318Z,53.53
2023-01-08T05:23:32.850Z,53.80
2023-01-08T05:26:02.505Z,54.77
2023-01-08T05:28:30.905Z,53.83
2023-01-08T05:31:01.722Z,49.97
2023-01-08T05:33:29.743Z,53.63
2023-01-08T05:35:57.626Z,52.50
2023-01-08T05:38:25.744Z,52.73
2023-01-08T05:40:55.901Z,56.00
2023-01-08T05:43:23.736Z,54.30
2023-01-08T05:45:51.591Z,59.30
2023-01-08T05:48:19.728Z,62.70
2023-01-08T05:50:52.929Z,98.83
2023-01-08T05:53:20.856Z,109.17
2023-01-08T05:55:50.035Z,101.67
2023-01-08T05:58:19.844Z,82.33
2023-01-08T06:00:48.007Z,71.87
2023-01-08T06:03:21.239Z,66.23
2023-01-08T06:05:49.133Z,60.13
2023-01-08T06:08:17.382Z,54.27
2023-01-08T06:10:45.252Z,53.27
2023-01-08T06:13:13.145Z,49.70
2023-01-08T06:15:42.439Z,46.47
2023-01-08T06:18:10.365Z,47.07
2023-01-08T06:20:38.321Z,44.23
2023-01-08T06:23:06.325Z,41.13
2023-01-08T06:25:35.962Z,40.93
2023-01-08T06:28:04.415Z,42.60
2023-01-08T06:30:33.547Z,39.60
2023-01-08T06:33:03.242Z,38.97
2023-01-08T06:35:32.597Z,41.37
2023-01-08T06:38:00.434Z,40.23
2023-01-08T06:40:28.346Z,37.73
2023-01-08T06:42:56.616Z,38.37
2023-01-08T06:45:25.408Z,39.13
2023-01-08T06:47:53.275Z,41.43
2023-01-08T06:50:22.839Z,39.83
2023-01-08T06:52:54.348Z,38.17
2023-01-08T06:55:22.802Z,37.90
2023-01-08T06:57:54.944Z,37.27
2023-01-08T07:00:23.943Z,38.50
2023-01-08T07:02:53.069Z,42.07
2023-01-08T07:05:23.400Z,42.47
2023-01-08T07:07:51.542Z,42.00
2023-01-08T07:10:20.258Z,38.13
2023-01-08T07:12:48.626Z,35.93
2023-01-08T07:15:23.411Z,37.17
2023-01-08T07:17:51.333Z,36.77
2023-01-08T07:20:19.527Z,37.10
2023-01-08T07:22:48.780Z,35.47
2023-01-08T07:25:18.813Z,35.10
2023-01-08T07:27:50.504Z,33.20
2023-01-08T07:30:29.400Z,35.30
2023-01-08T07:33:00.294Z,38.20
2023-01-08T07:35:28.907Z,35.07
2023-01-08T07:37:58.375Z,32.40
2023-01-08T07:40:27.954Z,32.10
2023-01-08T07:43:00.229Z,33.50
2023-01-08T07:45:28.677Z,34.43
2023-01-08T07:47:58.994Z,32.17
2023-01-08T07:50:27.323Z,32.93
2023-01-08T07:52:59.702Z,33.77
2023-01-08T07:55:27.711Z,32.93
2023-01-08T07:57:55.618Z,32.57
2023-01-08T08:00:23.764Z,31.50
2023-01-08T08:02:51.893Z,33.17
2023-01-08T08:05:19.881Z,35.23
2023-01-08T08:07:47.818Z,33.30
2023-01-08T08:10:17.140Z,32.67
2023-01-08T08:12:46.467Z,30.53
2023-01-08T08:15:17.304Z,32.97
2023-01-08T08:17:46.951Z,30.47
2023-01-08T08:20:15.152Z,32.63
2023-01-08T08:22:43.586Z,34.30
2023-01-08T08:25:11.893Z,36.63
2023-01-08T08:27:41.221Z,36.37
2023-01-08T08:30:10.888Z,36.40
2023-01-08T08:32:38.997Z,35.53
2023-01-08T08:35:07.885Z,35.50
2023-01-08T08:37:35.739Z,36.47
2023-01-08T08:40:03.658Z,37.57
2023-01-08T08:42:31.573Z,37.03
2023-01-08T08:45:00.845Z,38.13
2023-01-08T08:47:28.789Z,39.23
2023-01-08T08:49:56.878Z,39.27
2023-01-08T08:52:28.646Z,39.70
2023-01-08T08:54:56.587Z,38.03
2023-01-08T08:57:27.427Z,37.43
2023-01-08T08:59:55.804Z,38.43
2023-01-08T09:02:25.561Z,36.83
2023-01-08T09:04:53.637Z,36.93
2023-01-08T09:07:27.306Z,36.63
2023-01-08T09:09:58.066Z,36.03
2023-01-08T09:12:26.516Z,33.83
2023-01-08T09:14:58.967Z,35.93
2023-01-08T09:17:37.629Z,36.43
2023-01-08T09:20:07.894Z,34.23
2023-01-08T09:22:35.781Z,34.47
2023-01-08T09:25:05.292Z,34.67
2023-01-08T09:27:34.468Z,36.07
2023-01-08T09:30:04.741Z,35.53
2023-01-08T09:32:35.244Z,36.77
2023-01-08T09:35:04.640Z,34.00
2023-01-08T09:37:33.186Z,33.27
2023-01-08T09:40:03.273Z,31.33
2023-01-08T09:42:34.277Z,32.67
2023-01-08T09:45:05.241Z,32.70
2023-01-08T09:47:50.019Z,32.27
2023-01-08T09:50:25.800Z,30.20
2023-01-08T09:52:57.231Z,33.40
2023-01-08T09:55:25.133Z,30.20
2023-01-08T09:57:55.030Z,32.10
2023-01-08T10:00:27.848Z,33.77
2023-01-08T10:02:58.449Z,32.07
2023-01-08T10:05:28.739Z,33.07
2023-01-08T10:07:56.785Z,33.83
2023-01-08T10:10:28.553Z,32.70
2023-01-08T10:12:57.456Z,33.33
2023-01-08T10:15:26.444Z,35.70
2023-01-08T10:18:01.969Z,35.27
2023-01-08T10:20:29.985Z,34.90
2023-01-08T10:23:09.544Z,32.93
2023-01-08T10:25:49.998Z,33.50
2023-01-08T10:28:24.297Z,26.67
2023-01-08T10:30:54.261Z,24.77
2023-01-08T10:33:26.697Z,26.53
2023-01-08T10:36:02.225Z,23.80
2023-01-08T10:38:33.881Z,25.13
2023-01-08T10:41:04.568Z,23.73
2023-01-08T10:43:36.725Z,23.47
2023-01-08T10:46:09.721Z,21.77
2023-01-08T10:48:46.274Z,21.57
2023-01-08T10:51:17.914Z,22.97
2023-01-08T10:53:46.469Z,22.07
2023-01-08T10:56:22.012Z,25.67
2023-01-08T10:58:51.084Z,23.30
2023-01-08T11:01:23.358Z,22.03
2023-01-08T11:03:55.531Z,24.23
2023-01-08T11:06:25.687Z,23.33
2023-01-08T11:08:55.606Z,21.97
2023-01-08T11:11:24.181Z,21.37
2023-01-08T11:14:01.644Z,22.03
2023-01-08T11:16:34.431Z,22.33
2023-01-08T11:19:04.237Z,22.80
2023-01-08T11:21:36.281Z,24.67
2023-01-08T11:24:16.500Z,22.10
2023-01-08T11:26:50.294Z,21.23
2023-01-08T11:29:23.610Z,23.67
2023-01-08T11:31:57.105Z,22.63
2023-01-08T11:34:32.731Z,22.93
2023-01-08T11:37:12.228Z,23.23
2023-01-08T11:39:40.435Z,20.67
2023-01-08T11:42:21.923Z,18.47
2023-01-08T11:45:03.842Z,19.33
2023-01-08T11:47:49.925Z,18.60
2023-01-08T11:50:25.694Z,19.43
2023-01-08T11:53:08.625Z,19.00
2023-01-08T11:55:51.039Z,20.43
2023-01-08T11:58:36.137Z,21.63
2023-01-08T12:01:27.734Z,19.10
2023-01-08T12:04:13.636Z,20.63
2023-01-08T12:06:49.308Z,20.02
2023-01-08T12:09:24.297Z,17.87
2023-01-08T12:11:59.859Z,19.63
2023-01-08T12:14:41.525Z,19.02
2023-01-08T12:17:25.003Z,18.65
2023-01-08T12:20:12.110Z,17.45
2023-01-08T12:22:50.558Z,17.05
2023-01-08T12:25:27.367Z,16.92
2023-01-08T12:28:04.036Z,15.43
2023-01-08T12:30:47.777Z,16.73
2023-01-08T12:33:23.981Z,16.70
2023-01-08T12:35:56.082Z,16.50
2023-01-08T12:38:30.141Z,16.33
2023-01-08T12:41:02.825Z,18.05
2023-01-08T12:43:34.468Z,20.38
2023-01-08T12:46:04.751Z,17.95
2023-01-08T12:48:36.514Z,18.45
2023-01-08T12:51:10.554Z,18.30
2023-01-08T12:53:50.578Z,18.10
2023-01-08T12:56:27.672Z,18.35
2023-01-08T12:59:09.208Z,18.95
2023-01-08T13:01:45.296Z,19.33
2023-01-08T13:04:17.582Z,19.50
2023-01-08T13:06:54.145Z,20.57
2023-01-08T13:09:29.654Z,19.90
2023-01-08T13:11:59.730Z,20.23
2023-01-08T13:14:29.168Z,20.47
2023-01-08T13:17:05.615Z,19.60
2023-01-08T13:19:43.983Z,19.87
2023-01-08T13:22:36.138Z,20.07
2023-01-08T13:25:29.866Z,20.73
2023-01-08T13:28:01.086Z,21.40
2023-01-08T13:30:41.063Z,21.03
2023-01-08T13:33:39.629Z,21.93
2023-01-08T13:36:21.332Z,22.47
2023-01-08T13:39:21.289Z,23.87
2023-01-08T13:42:02.439Z,24.17
2023-01-08T13:44:34.270Z,23.43
2023-01-08T13:47:05.031Z,24.27
2023-01-08T13:49:39.555Z,26.47
2023-01-08T13:52:42.706Z,26.77
2023-01-08T13:55:20.717Z,24.27
2023-01-08T13:58:03.256Z,24.60
2023-01-08T14:03:29.679Z,23.33
2023-01-08T14:06:10.282Z,21.70
2023-01-08T14:08:38.254Z,18.90
2023-01-08T14:11:07.940Z,18.43
2023-01-08T14:13:38.214Z,20.53
2023-01-08T14:16:12.576Z,22.00
2023-01-08T14:18:43.474Z,23.23
2023-01-08T14:21:13.768Z,23.63
2023-01-08T14:23:46.544Z,22.60
2023-01-08T14:26:25.452Z,21.13
2023-01-08T14:28:56.522Z,20.57
2023-01-08T14:31:26.611Z,18.77
2023-01-08T14:33:55.567Z,18.90
2023-01-08T14:36:24.356Z,19.67
2023-01-08T14:38:52.651Z,20.30
2023-01-08T14:41:52.205Z,20.87
2023-01-08T14:44:29.194Z,20.87
2023-01-08T14:47:04.683Z,21.80
2023-01-08T14:49:40.805Z,22.13
2023-01-08T14:52:12.769Z,24.20
2023-01-08T14:54:40.932Z,25.60
2023-01-08T14:57:08.926Z,26.57
2023-01-08T14:59:42.374Z,27.70
2023-01-08T15:02:23.721Z,27.87
2023-01-08T15:05:04.088Z,29.50
2023-01-08T15:07:33.421Z,27.23
2023-01-08T15:10:03.086Z,27.80
2023-01-08T15:12:33.381Z,26.10
2023-01-08T15:15:43.218Z,25.83
2023-01-08T15:18:13.959Z,26.67
2023-01-08T15:20:46.229Z,29.40
2023-01-08T15:23:27.377Z,37.87
2023-01-08T15:25:57.443Z,34.13
2023-01-08T15:28:26.794Z,35.43
2023-01-08T15:30:58.468Z,33.43
2023-01-08T15:33:27.462Z,36.23
2023-01-08T15:35:56.026Z,43.10
2023-01-08T15:38:24.179Z,41.80
2023-01-08T15:40:54.173Z,42.67
2023-01-08T15:43:21.767Z,45.13
2023-01-08T15:45:51.294Z,46.10
2023-01-08T15:48:20.777Z,48.20
2023-01-08T15:50:48.956Z,48.83
2023-01-08T15:53:19.993Z,48.60
2023-01-08T15:55:47.989Z,48.40
2023-01-08T15:58:17.121Z,59.53
2023-01-08T16:00:46.657Z,74.77
2023-01-08T16:03:15.912Z,60.40
2023-01-08T16:05:45.364Z,58.40
2023-01-08T16:08:16.475Z,64.93
2023-01-08T16:10:46.724Z,58.33
2023-01-08T16:13:14.763Z,64.17
2023-01-08T16:15:42.590Z,73.50
2023-01-08T16:18:12.918Z,85.97
2023-01-08T16:20:47.321Z,148.73
2023-01-08T16:23:18.056Z,152.70
2023-01-08T16:25:47.431Z,180.00
2023-01-08T16:28:15.695Z,235.10
2023-01-08T16:30:44.071Z,218.97
2023-01-08T16:33:11.949Z,174.10
2023-01-08T16:35:39.885Z,179.57
2023-01-08T16:38:11.087Z,188.17
2023-01-08T16:40:55.902Z,236.53
2023-01-08T16:43:24.981Z,195.07
2023-01-08T16:45:56.268Z,176.90
2023-01-08T16:48:24.513Z,157.70
2023-01-08T16:50:52.402Z,149.70
2023-01-08T16:53:21.984Z,123.93
2023-01-08T16:55:51.240Z,117.10
2023-01-08T16:58:21.506Z,131.00
2023-01-08T17:00:49.392Z,127.93
2023-01-08T17:03:17.269Z,113.03
2023-01-08T17:05:48.952Z,119.97
2023-01-08T17:08:20.050Z,113.13
2023-01-08T17:10:48.243Z,95.73
2023-01-08T17:13:17.615Z,65.63
2023-01-08T17:15:46.855Z,62.97
2023-01-08T17:18:17.505Z,60.33
2023-01-08T17:20:45.475Z,49.90
2023-01-08T17:23:13.360Z,49.60
2023-01-08T17:25:41.845Z,57.67
2023-01-08T17:28:09.730Z,59.83
2023-01-08T17:30:39.238Z,67.57
2023-01-08T17:33:07.187Z,89.37
2023-01-08T17:35:35.134Z,78.40
2023-01-08T17:38:03.145Z,82.70
2023-01-08T17:40:31.194Z,76.23
2023-01-08T17:42:59.341Z,68.80
2023-01-08T17:45:27.659Z,58.60
2023-01-08T17:47:56.990Z,54.60
2023-01-08T17:50:24.835Z,55.43
2023-01-08T17:52:52.693Z,58.17
2023-01-08T17:55:20.587Z,84.60
2023-01-08T17:57:48.532Z,93.40
2023-01-08T18:00:17.469Z,82.43
2023-01-08T18:02:45.483Z,79.17
2023-01-08T18:05:14.781Z,59.87
2023-01-08T18:07:42.709Z,73.00
2023-01-08T18:10:12.994Z,65.30
2023-01-08T18:12:41.510Z,54.90
2023-01-08T18:15:10.311Z,45.33
2023-01-08T18:17:39.546Z,60.83
2023-01-08T18:20:08.732Z,54.73
2023-01-08T18:22:38.004Z,55.93
2023-01-08T18:25:06.367Z,43.27
2023-01-08T18:27:35.794Z,44.60
2023-01-08T18:30:03.766Z,39.50
2023-01-08T18:32:31.710Z,35.97
2023-01-08T18:34:59.679Z,39.67
2023-01-08T18:37:27.519Z,38.63
2023-01-08T18:39:56.740Z,44.73
2023-01-08T18:42:27.420Z,40.57
2023-01-08T18:44:56.047Z,42.77
2023-01-08T18:47:24.149Z,35.80
2023-01-08T18:49:53.945Z,37.97
2023-01-08T18:52:21.845Z,39.13
2023-01-08T18:54:49.852Z,29.67
2023-01-08T18:57:19.145Z,29.10
2023-01-08T18:59:48.785Z,23.10
2023-01-08T19:02:21.343Z,26.03
2023-01-08T19:04:50.080Z,24.10
2023-01-08T19:07:18.760Z,22.27
2023-01-08T19:09:46.976Z,20.77
2023-01-08T19:12:14.874Z,21.47
2023-01-08T19:14:45.215Z,23.47
2023-01-08T19:17:14.302Z,21.30
2023-01-08T19:19:42.230Z,20.97
2023-01-08T19:22:10.162Z,20.87
2023-01-08T19:24:38.076Z,21.67
2023-01-08T19:27:05.948Z,23.07
2023-01-08T19:29:33.861Z,22.10
2023-01-08T19:32:03.092Z,24.70
2023-01-08T19:34:30.950Z,26.53
2023-01-08T19:37:02.131Z,30.90
2023-01-08T19:39:30.341Z,35.90
2023-01-08T19:42:15.831Z,43.40
2023-01-08T19:44:43.777Z,54.47
2023-01-08T19:47:13.133Z,46.67
2023-01-08T19:49:42.918Z,43.80
2023-01-08T19:52:10.996Z,48.50
2023-01-08T19:54:38.894Z,56.13
2023-01-08T19:57:06.812Z,58.57
2023-01-08T19:59:34.902Z,74.77
2023-01-08T20:02:02.944Z,90.47
2023-01-08T20:04:32.743Z,46.13
2023-01-08T20:07:00.995Z,42.07
2023-01-08T20:09:29.144Z,40.10
2023-01-08T20:11:57.405Z,41.53
2023-01-08T20:14:25.268Z,40.43
2023-01-08T20:16:53.265Z,47.93
2023-01-08T20:19:21.266Z,40.97
2023-01-08T20:21:50.615Z,31.50
2023-01-08T20:24:18.544Z,36.83
2023-01-08T20:26:47.215Z,37.93
2023-01-08T20:29:16.612Z,42.37
2023-01-08T20:31:44.788Z,42.77
2023-01-08T20:34:15.590Z,41.27
2023-01-08T20:36:44.994Z,44.07
2023-01-08T20:39:16.507Z,41.20
2023-01-08T20:41:50.275Z,47.87
2023-01-08T20:44:28.833Z,38.63
2023-01-08T20:46:56.730Z,36.63
2023-01-08T20:49:26.567Z,36.30
2023-01-08T20:51:59.077Z,41.57
2023-01-08T20:54:30.658Z,41.77
2023-01-08T20:56:59.652Z,47.03
2023-01-08T20:59:28.574Z,50.33
2023-01-08T21:01:57.220Z,51.00
2023-01-08T21:04:25.403Z,50.13
2023-01-08T21:06:53.321Z,33.17
2023-01-08T21:09:21.246Z,38.03
2023-01-08T21:11:50.822Z,33.07
2023-01-08T21:14:18.794Z,50.93
2023-01-08T21:16:46.645Z,49.03
2023-01-08T21:19:16.299Z,70.67
2023-01-08T21:21:45.800Z,62.77
2023-01-08T21:24:15.877Z,59.43
2023-01-08T21:26:46.591Z,61.20
2023-01-08T21:29:17.553Z,49.83
2023-01-08T21:31:45.482Z,50.93
2023-01-08T21:34:13.973Z,58.30
2023-01-08T21:36:41.857Z,53.43
2023-01-08T21:39:11.359Z,36.43
2023-01-08T21:41:56.715Z,37.70
2023-01-08T21:44:45.138Z,68.53
2023-01-08T21:47:16.494Z,38.23
2023-01-08T21:49:45.147Z,53.07
2023-01-08T21:52:30.772Z,43.93
2023-01-08T21:54:58.927Z,31.33
2023-01-08T21:57:28.267Z,36.13
2023-01-08T21:59:57.714Z,26.80
2023-01-08T22:02:26.418Z,53.80
2023-01-08T22:04:56.257Z,56.27
2023-01-08T22:07:24.369Z,52.27
2023-01-08T22:09:52.286Z,54.20
2023-01-08T22:12:20.449Z,49.50
2023-01-08T22:14:48.376Z,56.83
2023-01-08T22:17:17.678Z,50.03
2023-01-08T22:19:45.626Z,51.53
2023-01-08T22:22:13.574Z,31.87
2023-01-08T22:24:41.828Z,32.37
2023-01-08T22:27:10.287Z,37.50
2023-01-08T22:29:39.824Z,33.03
2023-01-08T22:32:07.702Z,33.83
2023-01-08T22:34:37.004Z,36.47
2023-01-08T22:37:05.214Z,36.23
2023-01-08T22:39:33.184Z,33.30
2023-01-08T22:42:01.544Z,35.20
2023-01-08T22:44:29.508Z,36.57
2023-01-08T22:46:59.229Z,33.47
2023-01-08T22:49:27.174Z,31.87
2023-01-08T22:51:56.459Z,31.00
2023-01-08T22:54:24.352Z,33.03
2023-01-08T22:56:52.350Z,36.60
2023-01-08T22:59:21.292Z,33.37
2023-01-08T23:01:49.316Z,27.87
2023-01-08T23:04:17.263Z,32.93
2023-01-08T23:06:45.183Z,36.97
2023-01-08T23:09:14.537Z,40.17
2023-01-08T23:11:42.597Z,44.97
2023-01-08T23:14:11.512Z,34.83
2023-01-08T23:16:39.619Z,34.90
2023-01-08T23:19:07.530Z,41.80
2023-01-08T23:21:36.466Z,39.10
2023-01-08T23:24:04.443Z,58.87
2023-01-08T23:26:33.671Z,64.80
2023-01-08T23:29:01.729Z,64.53
2023-01-08T23:31:31.009Z,63.43
2023-01-08T23:33:59.444Z,63.30
2023-01-08T23:36:27.506Z,48.00
2023-01-08T23:38:57.011Z,43.67
2023-01-08T23:41:33.033Z,45.33
2023-01-08T23:44:05.342Z,33.23
2023-01-08T23:46:33.217Z,29.40
2023-01-08T23:49:01.983Z,28.83
2023-01-08T23:51:29.968Z,33.63
2023-01-08T23:53:57.814Z,31.83
2023-01-08T23:56:25.733Z,36.33
2023-01-08T23:58:54.229Z,33.87
